Main page
METAR-TAF:

METAR-TAF

Airports :

Funchal, Madeira, Portugal

Madeira Airport

latitude: 32-41-52N, longitude: 016-46-28W, elevation: 59 m

Current weather observation

The report was made 15 minutes ago, at 02:00 UTC
Wind 16 kt from the North/Northeast with gusts up to 28 kt, varying between North/Northwest and East/Northeast
Temperature 21°C
Humidity 73%
Pressure 1018 hPa
Visibility 10 km or more
Few clouds at a height of 1500 ft

METAR: LPMA 200200Z 02016G28KT 340V060 9999 FEW015 21/16 Q1018

Time: 03:15 (02:15 UTC)

Forecast

The report was made 3 hours and 15 minutes ago, at 23:00 UTC
Forecast valid from 20 at 00 UTC to 20 at 24 UTC
Wind 15 kt from the North
Visibility 10 km or more
Few clouds at a height of 1300 ft
Probability 40% :
Temporary
from 20 at 00 UTC to 20 at 12 UTC
Wind 20 kt from the North with gusts up to 30 kt

TAF: LPMA 192300Z 2000/2024 01015KT 9999 FEW013 PROB40 TEMPO 2000/2012 36020G30KT

Weather observations and forecasts of more than 4000 airports (METAR and TAF reports).

The available stations are represented by yellow and red dots on the map.

Hover mouse over dot to see the name of the station.

Then click to see weather observations and forecasts.

To change the map : click on the green buttons with a black cross to zoom in, on the green button with a dash to zoom out, or on the green arrows for adjacent maps.


METAR-TAF: